createdAt,value
2019-01-30T00:00:05.962Z,90.05
2019-01-30T00:01:05.816Z,89.73
2019-01-30T00:02:05.821Z,90.05
2019-01-30T00:03:05.803Z,90.47
2019-01-30T00:04:05.883Z,89.63
2019-01-30T00:05:05.780Z,89.73
2019-01-30T00:06:05.763Z,89.22
2019-01-30T00:07:05.779Z,89.73
2019-01-30T00:08:05.778Z,89.84
2019-01-30T00:09:05.775Z,90.05
2019-01-30T00:10:05.725Z,90.05
2019-01-30T00:11:05.775Z,89.84
2019-01-30T00:12:05.699Z,89.63
2019-01-30T00:13:05.746Z,88.69
2019-01-30T00:14:05.693Z,89.00
2019-01-30T00:15:05.666Z,88.69
2019-01-30T00:16:05.774Z,89.00
2019-01-30T00:17:05.677Z,88.27
2019-01-30T00:18:05.647Z,89.11
2019-01-30T00:19:05.641Z,88.79
2019-01-30T00:20:05.613Z,88.90
2019-01-30T00:21:05.623Z,89.11
2019-01-30T00:22:05.745Z,89.22
2019-01-30T00:23:05.591Z,87.99
2019-01-30T00:24:05.571Z,88.27
2019-01-30T00:25:05.575Z,89.15
2019-01-30T00:26:05.663Z,88.90
2019-01-30T00:27:05.565Z,89.11
2019-01-30T00:28:05.567Z,88.79
2019-01-30T00:29:05.529Z,88.62
2019-01-30T00:30:05.550Z,89.36
2019-01-30T00:31:05.508Z,89.57
2019-01-30T00:32:05.695Z,89.95
2019-01-30T00:33:05.504Z,89.36
2019-01-30T00:34:05.467Z,88.73
2019-01-30T00:35:05.563Z,88.79
2019-01-30T00:36:05.467Z,89.04
2019-01-30T00:37:05.483Z,88.79
2019-01-30T00:38:05.437Z,88.37
2019-01-30T00:39:05.517Z,88.52
2019-01-30T00:40:05.454Z,89.98
2019-01-30T00:41:05.394Z,89.78
2019-01-30T00:42:05.397Z,89.78
2019-01-30T00:43:05.442Z,89.36
2019-01-30T00:44:05.413Z,90.09
2019-01-30T00:45:05.418Z,89.84
2019-01-30T00:46:05.346Z,89.98
2019-01-30T00:47:05.672Z,89.98
2019-01-30T00:48:06.359Z,89.57
2019-01-30T00:49:05.339Z,89.47
2019-01-30T00:50:05.312Z,89.25
2019-01-30T00:51:05.295Z,89.88
2019-01-30T00:52:05.286Z,89.78
2019-01-30T00:53:05.332Z,88.52
2019-01-30T00:54:05.687Z,89.25
2019-01-30T00:55:05.271Z,88.52
2019-01-30T00:56:05.245Z,89.98
2019-01-30T00:57:05.245Z,89.04
2019-01-30T00:58:05.377Z,89.15
2019-01-30T00:59:05.267Z,89.47
2019-01-30T01:00:14.413Z,88.52
2019-01-30T01:01:06.196Z,89.67
2019-01-30T01:02:05.265Z,89.78
2019-01-30T01:03:05.201Z,89.25
2019-01-30T01:04:05.177Z,89.57
2019-01-30T01:05:05.162Z,88.94
2019-01-30T01:06:05.176Z,89.98
2019-01-30T01:07:05.150Z,89.36
2019-01-30T01:08:05.153Z,88.84
2019-01-30T01:09:05.194Z,89.15
2019-01-30T01:10:05.161Z,89.25
2019-01-30T01:11:05.304Z,88.84
2019-01-30T01:12:05.073Z,88.62
2019-01-30T01:13:05.133Z,88.31
2019-01-30T01:14:05.058Z,88.84
2019-01-30T01:15:05.110Z,88.42
2019-01-30T01:16:05.032Z,88.42
2019-01-30T01:17:05.033Z,88.62
2019-01-30T01:18:05.250Z,88.21
2019-01-30T01:19:05.043Z,88.73
2019-01-30T01:20:05.008Z,87.99
2019-01-30T01:21:05.018Z,88.42
2019-01-30T01:22:05.116Z,88.31
2019-01-30T01:23:05.036Z,88.52
2019-01-30T01:24:04.977Z,88.31
2019-01-30T01:25:04.955Z,88.31
2019-01-30T01:26:04.990Z,88.10
2019-01-30T01:27:04.936Z,87.68
2019-01-30T01:28:04.935Z,87.47
2019-01-30T01:29:05.007Z,87.47
2019-01-30T01:30:04.890Z,87.99
2019-01-30T01:31:04.888Z,88.42
2019-01-30T01:32:05.113Z,87.68
2019-01-30T01:33:04.884Z,88.62
2019-01-30T01:34:04.850Z,87.89
2019-01-30T01:35:04.850Z,87.89
2019-01-30T01:36:04.850Z,87.68
2019-01-30T01:37:04.817Z,87.37
2019-01-30T01:38:04.831Z,87.05
2019-01-30T01:39:04.789Z,87.16
2019-01-30T01:40:04.852Z,87.43
2019-01-30T01:41:04.790Z,87.79
2019-01-30T01:42:04.773Z,87.05
2019-01-30T01:43:04.792Z,87.26
2019-01-30T01:44:04.833Z,87.37
2019-01-30T01:45:04.729Z,87.79
2019-01-30T01:46:04.729Z,87.47
2019-01-30T01:47:04.965Z,88.10
2019-01-30T01:48:04.721Z,88.52
2019-01-30T01:49:04.720Z,88.73
2019-01-30T01:50:04.681Z,88.21
2019-01-30T01:51:04.730Z,88.10
2019-01-30T01:52:04.656Z,88.10
2019-01-30T01:53:04.647Z,88.73
2019-01-30T01:54:04.682Z,88.21
2019-01-30T01:55:04.658Z,87.89
2019-01-30T01:56:04.623Z,87.89
2019-01-30T01:57:04.601Z,87.89
2019-01-30T01:58:04.666Z,88.31
2019-01-30T01:59:04.622Z,88.42
2019-01-30T02:00:04.577Z,88.42
2019-01-30T02:01:04.575Z,88.52
2019-01-30T02:02:04.557Z,87.99
2019-01-30T02:03:04.572Z,88.73
2019-01-30T02:04:04.577Z,88.59
2019-01-30T02:05:04.535Z,88.73
2019-01-30T02:06:04.529Z,88.42
2019-01-30T02:07:04.515Z,88.52
2019-01-30T02:08:04.488Z,87.79
2019-01-30T02:09:04.553Z,88.52
2019-01-30T02:10:04.491Z,88.27
2019-01-30T02:11:04.467Z,89.04
2019-01-30T02:12:04.460Z,88.90
2019-01-30T02:13:04.453Z,88.21
2019-01-30T02:14:04.544Z,88.42
2019-01-30T02:15:04.440Z,88.31
2019-01-30T02:16:04.415Z,88.31
2019-01-30T02:17:04.398Z,88.52
2019-01-30T02:18:04.401Z,88.52
2019-01-30T02:19:04.430Z,88.42
2019-01-30T02:20:04.676Z,88.48
2019-01-30T02:21:04.437Z,88.31
2019-01-30T02:22:04.353Z,88.42
2019-01-30T02:23:04.621Z,88.31
2019-01-30T02:24:04.391Z,88.52
2019-01-30T02:25:04.327Z,88.52
2019-01-30T02:26:04.308Z,88.21
2019-01-30T02:27:04.332Z,88.48
2019-01-30T02:28:04.326Z,88.62
2019-01-30T02:29:04.301Z,88.94
2019-01-30T02:30:04.264Z,88.10
2019-01-30T02:31:04.252Z,88.73
2019-01-30T02:32:04.239Z,88.84
2019-01-30T02:33:04.232Z,88.42
2019-01-30T02:34:04.307Z,88.42
2019-01-30T02:35:04.460Z,88.52
2019-01-30T02:36:04.200Z,88.37
2019-01-30T02:37:04.189Z,88.31
2019-01-30T02:38:04.186Z,89.15
2019-01-30T02:39:04.262Z,88.62
2019-01-30T02:40:04.155Z,87.26
2019-01-30T02:41:04.146Z,87.16
2019-01-30T02:42:04.192Z,87.68
2019-01-30T02:43:04.158Z,87.58
2019-01-30T02:44:04.120Z,87.16
2019-01-30T02:45:04.130Z,86.95
2019-01-30T02:46:04.120Z,87.68
2019-01-30T02:47:04.175Z,87.89
2019-01-30T02:48:04.101Z,87.58
2019-01-30T02:49:04.091Z,88.21
2019-01-30T02:50:04.055Z,88.31
2019-01-30T02:51:04.056Z,88.10
2019-01-30T02:52:04.083Z,88.62
2019-01-30T02:53:04.048Z,87.79
2019-01-30T02:54:04.011Z,87.79
2019-01-30T02:55:04.018Z,87.89
2019-01-30T02:56:04.211Z,87.89
2019-01-30T02:57:04.069Z,87.37
2019-01-30T02:58:03.966Z,86.53
2019-01-30T02:59:04.033Z,86.74
2019-01-30T03:00:04.000Z,86.22
2019-01-30T03:01:03.950Z,86.70
2019-01-30T03:02:03.944Z,86.91
2019-01-30T03:03:03.960Z,87.47
2019-01-30T03:04:03.932Z,87.37
2019-01-30T03:05:03.896Z,87.47
2019-01-30T03:06:03.930Z,87.47
2019-01-30T03:07:03.889Z,87.05
2019-01-30T03:08:03.905Z,87.01
2019-01-30T03:09:03.894Z,87.16
2019-01-30T03:10:03.859Z,87.89
2019-01-30T03:11:03.835Z,87.26
2019-01-30T03:12:03.916Z,87.05
2019-01-30T03:13:03.867Z,86.43
2019-01-30T03:14:03.821Z,87.16
2019-01-30T03:15:03.790Z,87.79
2019-01-30T03:16:03.907Z,87.05
2019-01-30T03:17:03.802Z,86.63
2019-01-30T03:18:03.771Z,86.85
2019-01-30T03:19:03.772Z,86.43
2019-01-30T03:20:03.741Z,87.05
2019-01-30T03:21:03.788Z,86.95
2019-01-30T03:22:03.729Z,86.74
2019-01-30T03:23:03.783Z,87.37
2019-01-30T03:24:03.720Z,87.79
2019-01-30T03:25:03.690Z,86.95
2019-01-30T03:26:03.677Z,86.11
2019-01-30T03:27:03.778Z,87.16
2019-01-30T03:28:03.739Z,87.30
2019-01-30T03:29:03.692Z,87.26
2019-01-30T03:30:03.699Z,87.62
2019-01-30T03:31:16.708Z,86.32
2019-01-30T03:32:04.621Z,86.74
2019-01-30T03:33:03.647Z,86.74
2019-01-30T03:34:03.615Z,86.53
2019-01-30T03:35:03.629Z,86.74
2019-01-30T03:36:03.584Z,87.16
2019-01-30T03:37:03.673Z,86.95
2019-01-30T03:38:03.702Z,86.43
2019-01-30T03:39:03.583Z,86.11
2019-01-30T03:40:03.548Z,86.22
2019-01-30T03:41:03.546Z,86.74
2019-01-30T03:42:03.518Z,86.22
2019-01-30T03:43:03.514Z,85.90
2019-01-30T03:44:03.520Z,86.53
2019-01-30T03:45:03.493Z,86.32
2019-01-30T03:46:03.564Z,86.32
2019-01-30T03:47:03.458Z,86.43
2019-01-30T03:48:03.448Z,86.11
2019-01-30T03:49:03.494Z,86.32
2019-01-30T03:50:03.453Z,86.32
2019-01-30T03:51:03.426Z,86.11
2019-01-30T03:52:03.438Z,86.11
2019-01-30T03:53:03.403Z,87.05
2019-01-30T03:54:03.388Z,87.37
2019-01-30T03:55:03.412Z,86.32
2019-01-30T03:56:03.375Z,86.63
2019-01-30T03:57:03.358Z,86.00
2019-01-30T03:58:03.450Z,86.32
2019-01-30T03:59:03.345Z,86.00
2019-01-30T04:00:03.332Z,86.63
2019-01-30T04:01:03.352Z,86.95
2019-01-30T04:02:03.307Z,86.53
2019-01-30T04:03:03.308Z,86.43
2019-01-30T04:04:03.289Z,86.32
2019-01-30T04:05:03.303Z,86.22
2019-01-30T04:06:03.267Z,86.43
2019-01-30T04:07:03.285Z,86.32
2019-01-30T04:08:03.341Z,85.90
2019-01-30T04:09:03.260Z,86.11
2019-01-30T04:10:03.229Z,85.06
2019-01-30T04:11:03.332Z,84.85
2019-01-30T04:12:03.256Z,84.85
2019-01-30T04:13:03.231Z,85.48
2019-01-30T04:14:03.183Z,85.48
2019-01-30T04:15:03.168Z,84.85
2019-01-30T04:16:03.207Z,85.06
2019-01-30T04:17:03.218Z,84.85
2019-01-30T04:18:03.144Z,84.85
2019-01-30T04:19:03.145Z,85.17
2019-01-30T04:20:03.117Z,85.06
2019-01-30T04:21:03.110Z,84.44
2019-01-30T04:22:03.110Z,86.32
2019-01-30T04:23:03.126Z,85.80
2019-01-30T04:24:03.093Z,85.17
2019-01-30T04:25:03.069Z,85.17
2019-01-30T04:26:03.055Z,86.32
2019-01-30T04:27:03.058Z,85.17
2019-01-30T04:28:03.042Z,86.22
2019-01-30T04:29:03.113Z,85.69
2019-01-30T04:30:03.009Z,85.17
2019-01-30T04:31:03.000Z,84.85
2019-01-30T04:32:03.009Z,84.12
2019-01-30T04:33:03.029Z,84.64
2019-01-30T04:34:03.005Z,86.53
2019-01-30T04:35:02.976Z,86.22
2019-01-30T04:36:02.992Z,85.59
2019-01-30T04:37:02.946Z,84.33
2019-01-30T04:38:02.936Z,86.32
2019-01-30T04:39:02.944Z,86.36
2019-01-30T04:40:02.913Z,86.43
2019-01-30T04:41:02.936Z,86.36
2019-01-30T04:42:02.926Z,85.73
2019-01-30T04:43:02.874Z,85.27
2019-01-30T04:44:02.905Z,86.22
2019-01-30T04:45:02.972Z,86.43
2019-01-30T04:46:02.863Z,85.42
2019-01-30T04:47:02.830Z,86.74
2019-01-30T04:48:02.837Z,86.15
2019-01-30T04:49:02.847Z,86.36
2019-01-30T04:50:02.806Z,86.15
2019-01-30T04:51:02.823Z,86.11
2019-01-30T04:52:02.796Z,84.79
2019-01-30T04:53:02.775Z,85.38
2019-01-30T04:54:02.761Z,86.63
2019-01-30T04:55:02.764Z,86.15
2019-01-30T04:56:02.774Z,86.11
2019-01-30T04:57:02.791Z,86.15
2019-01-30T04:58:02.760Z,85.63
2019-01-30T04:59:02.735Z,84.58
2019-01-30T05:00:02.699Z,85.17
2019-01-30T05:01:02.692Z,85.31
2019-01-30T05:02:02.682Z,85.00
2019-01-30T05:03:02.684Z,84.64
2019-01-30T05:04:02.737Z,86.36
2019-01-30T05:05:02.658Z,86.00
2019-01-30T05:06:02.640Z,85.80
2019-01-30T05:07:02.631Z,86.63
2019-01-30T05:08:02.624Z,86.78
2019-01-30T05:09:02.633Z,84.68
2019-01-30T05:10:02.680Z,84.96
2019-01-30T05:11:02.591Z,84.27
2019-01-30T05:12:02.587Z,84.89
2019-01-30T05:13:02.560Z,84.85
2019-01-30T05:14:02.558Z,86.25
2019-01-30T05:15:02.569Z,84.89
2019-01-30T05:16:02.536Z,84.22
2019-01-30T05:17:02.528Z,85.10
2019-01-30T05:18:02.566Z,84.27
2019-01-30T05:19:02.544Z,85.83
2019-01-30T05:20:02.510Z,86.78
2019-01-30T05:21:02.489Z,86.25
2019-01-30T05:22:02.485Z,86.15
2019-01-30T05:23:02.454Z,85.80
2019-01-30T05:24:02.454Z,86.46
2019-01-30T05:25:02.498Z,86.25
2019-01-30T05:26:02.447Z,86.05
2019-01-30T05:27:02.416Z,86.36
2019-01-30T05:28:02.412Z,86.36
2019-01-30T05:29:02.405Z,85.52
2019-01-30T05:30:02.437Z,85.73
2019-01-30T05:31:02.370Z,85.10
2019-01-30T05:32:02.407Z,85.21
2019-01-30T05:33:02.374Z,84.79
2019-01-30T05:34:02.338Z,85.83
2019-01-30T05:35:03.048Z,85.00
2019-01-30T05:36:02.567Z,85.73
2019-01-30T05:37:02.322Z,85.48
2019-01-30T05:38:02.336Z,83.74
2019-01-30T05:39:02.390Z,85.42
2019-01-30T05:40:02.322Z,85.73
2019-01-30T05:41:02.315Z,86.36
2019-01-30T05:42:02.360Z,85.52
2019-01-30T05:43:02.410Z,86.05
2019-01-30T05:44:02.292Z,85.52
2019-01-30T05:45:02.278Z,84.05
2019-01-30T05:46:02.228Z,84.54
2019-01-30T05:47:03.432Z,85.21
2019-01-30T05:48:02.287Z,86.63
2019-01-30T05:49:02.352Z,86.15
2019-01-30T05:50:02.287Z,85.10
2019-01-30T05:51:02.171Z,86.11
2019-01-30T05:52:02.171Z,86.99
2019-01-30T05:53:02.156Z,86.78
2019-01-30T05:54:02.170Z,86.57
2019-01-30T05:55:02.218Z,86.36
2019-01-30T05:56:02.135Z,85.94
2019-01-30T05:57:02.171Z,86.68
2019-01-30T05:58:02.101Z,85.73
2019-01-30T05:59:02.082Z,85.10
2019-01-30T06:00:02.213Z,85.00
2019-01-30T06:01:02.098Z,85.52
2019-01-30T06:02:11.514Z,86.78
2019-01-30T06:03:03.066Z,86.36
2019-01-30T06:04:02.114Z,87.20
2019-01-30T06:05:02.094Z,87.20
2019-01-30T06:06:02.016Z,86.99
2019-01-30T06:07:02.028Z,87.41
2019-01-30T06:08:01.995Z,86.46
2019-01-30T06:09:01.984Z,86.68
2019-01-30T06:10:02.082Z,86.71
2019-01-30T06:11:01.959Z,86.61
2019-01-30T06:12:01.957Z,86.92
2019-01-30T06:13:01.961Z,87.87
2019-01-30T06:14:01.932Z,86.82
2019-01-30T06:15:01.922Z,86.29
2019-01-30T06:16:01.911Z,86.40
2019-01-30T06:17:01.942Z,86.29
2019-01-30T06:18:01.891Z,87.55
2019-01-30T06:19:01.900Z,87.24
2019-01-30T06:20:01.892Z,86.51
2019-01-30T06:21:01.854Z,86.92
2019-01-30T06:22:01.854Z,86.40
2019-01-30T06:23:02.023Z,87.55
2019-01-30T06:24:01.882Z,87.87
2019-01-30T06:25:01.844Z,86.51
2019-01-30T06:26:01.845Z,87.34
2019-01-30T06:27:01.792Z,86.40
2019-01-30T06:28:01.779Z,87.24
2019-01-30T06:29:01.800Z,87.24
2019-01-30T06:30:01.791Z,88.18
2019-01-30T06:31:01.756Z,88.92
2019-01-30T06:32:01.750Z,88.29
2019-01-30T06:33:01.725Z,87.97
2019-01-30T06:34:01.721Z,87.03
2019-01-30T06:35:01.752Z,84.93
2019-01-30T06:36:01.713Z,84.93
2019-01-30T06:37:01.690Z,86.92
2019-01-30T06:38:01.678Z,86.92
2019-01-30T06:39:01.667Z,87.66
2019-01-30T06:40:01.689Z,87.76
2019-01-30T06:41:01.654Z,87.55
2019-01-30T06:42:01.672Z,87.38
2019-01-30T06:43:02.832Z,87.45
2019-01-30T06:44:01.616Z,87.34
2019-01-30T06:45:01.604Z,87.24
2019-01-30T06:46:01.690Z,87.59
2019-01-30T06:47:01.607Z,87.76
2019-01-30T06:48:01.579Z,88.71
2019-01-30T06:49:01.621Z,87.55
2019-01-30T06:50:01.549Z,86.61
2019-01-30T06:51:01.537Z,87.24
2019-01-30T06:52:01.552Z,87.55
2019-01-30T06:53:01.606Z,87.34
2019-01-30T06:54:01.547Z,86.92
2019-01-30T06:55:01.501Z,86.51
2019-01-30T06:56:01.500Z,86.51
2019-01-30T06:57:01.486Z,87.49
2019-01-30T06:58:01.471Z,88.18
2019-01-30T06:59:01.462Z,88.81
2019-01-30T07:00:01.513Z,88.43
2019-01-30T07:01:01.454Z,87.66
2019-01-30T07:02:01.427Z,88.54
2019-01-30T07:03:01.421Z,87.76
2019-01-30T07:04:01.407Z,88.49
2019-01-30T07:05:01.393Z,87.24
2019-01-30T07:06:01.449Z,87.34
2019-01-30T07:07:01.385Z,87.76
2019-01-30T07:08:01.391Z,87.24
2019-01-30T07:09:01.345Z,87.97
2019-01-30T07:10:01.355Z,89.54
2019-01-30T07:11:10.394Z,88.60
2019-01-30T07:12:02.368Z,88.49
2019-01-30T07:13:01.308Z,86.51
2019-01-30T07:14:01.296Z,86.40
2019-01-30T07:15:01.284Z,86.19
2019-01-30T07:16:01.305Z,86.51
2019-01-30T07:17:01.282Z,86.19
2019-01-30T07:18:01.302Z,86.19
2019-01-30T07:19:01.246Z,86.29
2019-01-30T07:20:01.237Z,87.45
2019-01-30T07:21:01.248Z,88.81
2019-01-30T07:22:01.226Z,88.39
2019-01-30T07:23:01.202Z,89.02
2019-01-30T07:24:01.189Z,88.81
2019-01-30T07:25:01.244Z,87.24
2019-01-30T07:26:01.193Z,87.76
2019-01-30T07:27:01.160Z,87.55
2019-01-30T07:28:01.158Z,87.55
2019-01-30T07:29:01.145Z,87.87
2019-01-30T07:30:01.142Z,88.56
2019-01-30T07:31:01.196Z,87.87
2019-01-30T07:32:01.111Z,88.67
2019-01-30T07:33:01.099Z,88.81
2019-01-30T07:34:01.084Z,87.76
2019-01-30T07:35:01.075Z,88.46
2019-01-30T07:36:01.125Z,88.56
2019-01-30T07:37:01.095Z,87.30
2019-01-30T07:38:01.054Z,87.03
2019-01-30T07:39:01.048Z,87.13
2019-01-30T07:40:01.030Z,86.99
2019-01-30T07:41:01.044Z,87.09
2019-01-30T07:42:01.016Z,87.62
2019-01-30T07:43:00.993Z,87.30
2019-01-30T07:44:01.037Z,87.51
2019-01-30T07:45:00.978Z,87.93
2019-01-30T07:46:00.980Z,88.56
2019-01-30T07:47:00.959Z,88.56
2019-01-30T07:48:00.941Z,89.09
2019-01-30T07:49:00.929Z,89.92
2019-01-30T07:50:00.986Z,89.82
2019-01-30T07:51:00.926Z,90.34
2019-01-30T07:52:00.903Z,90.28
2019-01-30T07:53:00.927Z,90.70
2019-01-30T07:54:00.878Z,91.01
2019-01-30T07:55:00.871Z,90.91
2019-01-30T07:56:00.959Z,91.53
2019-01-30T07:57:00.867Z,92.06
2019-01-30T07:58:00.838Z,92.38
2019-01-30T07:59:00.842Z,91.96
2019-01-30T08:00:00.825Z,93.32
2019-01-30T08:01:00.852Z,92.80
2019-01-30T08:02:00.795Z,93.11
2019-01-30T08:03:00.798Z,93.21
2019-01-30T08:04:00.774Z,93.53
2019-01-30T08:05:00.773Z,94.06
2019-01-30T08:06:00.790Z,94.26
2019-01-30T08:07:03.078Z,94.47
2019-01-30T08:08:00.749Z,94.68
2019-01-30T08:09:00.730Z,94.47
2019-01-30T08:10:00.712Z,95.00
2019-01-30T08:11:00.876Z,95.52
2019-01-30T08:12:00.694Z,95.42
2019-01-30T08:13:00.686Z,95.94
2019-01-30T08:14:02.008Z,95.73
2019-01-30T08:15:00.667Z,95.42
2019-01-30T08:16:00.656Z,96.47
2019-01-30T08:17:00.666Z,95.84
2019-01-30T08:18:00.694Z,95.52
2019-01-30T08:19:00.629Z,95.84
2019-01-30T08:20:00.617Z,96.15
2019-01-30T08:21:00.645Z,96.15
2019-01-30T08:22:00.624Z,95.62
2019-01-30T08:23:00.703Z,95.42
2019-01-30T08:24:00.803Z,96.47
2019-01-30T08:25:00.800Z,96.99
2019-01-30T08:26:00.658Z,96.78
2019-01-30T08:27:00.779Z,96.36
2019-01-30T08:28:00.546Z,96.99
2019-01-30T08:29:00.852Z,96.67
2019-01-30T08:30:00.650Z,96.57
2019-01-30T08:31:00.721Z,97.20
2019-01-30T08:32:01.198Z,96.89
2019-01-30T08:33:04.852Z,96.99
2019-01-30T08:34:01.520Z,96.78
2019-01-30T08:35:00.550Z,96.99
2019-01-30T08:36:00.572Z,96.89
2019-01-30T08:37:00.626Z,97.09
2019-01-30T08:38:00.510Z,96.89
2019-01-30T08:39:00.485Z,96.89
2019-01-30T08:40:00.482Z,96.99
2019-01-30T08:41:00.762Z,96.89
2019-01-30T08:42:00.908Z,96.78
2019-01-30T08:43:00.467Z,96.99
2019-01-30T08:44:00.635Z,97.41
2019-01-30T08:45:00.530Z,97.99
2019-01-30T08:46:00.530Z,97.83
2019-01-30T08:47:00.784Z,97.68
2019-01-30T08:48:00.473Z,97.68
2019-01-30T08:49:00.453Z,97.99
2019-01-30T08:50:00.463Z,98.14
2019-01-30T08:51:00.545Z,98.10
2019-01-30T08:52:00.506Z,97.47
2019-01-30T08:53:00.554Z,97.47
2019-01-30T08:54:00.359Z,97.36
2019-01-30T08:55:00.508Z,97.47
2019-01-30T08:56:00.482Z,97.58
2019-01-30T08:57:00.335Z,97.53
2019-01-30T08:58:00.339Z,97.53
2019-01-30T08:59:00.303Z,97.95
2019-01-30T09:00:00.446Z,97.32
2019-01-30T09:01:00.321Z,97.42
2019-01-30T09:02:00.469Z,97.42
2019-01-30T09:03:00.315Z,97.32
2019-01-30T09:04:00.220Z,96.59
2019-01-30T09:05:00.378Z,96.90
2019-01-30T09:06:00.293Z,96.94
2019-01-30T09:07:00.422Z,97.68
2019-01-30T09:08:00.283Z,97.53
2019-01-30T09:09:00.232Z,97.42
2019-01-30T09:10:00.305Z,98.05
2019-01-30T09:11:00.202Z,97.32
2019-01-30T09:12:00.164Z,97.63
2019-01-30T09:13:00.208Z,97.63
2019-01-30T09:14:00.156Z,97.68
2019-01-30T09:15:00.219Z,97.53
2019-01-30T09:16:00.104Z,97.47
2019-01-30T09:17:00.199Z,97.78
2019-01-30T09:18:00.065Z,97.47
2019-01-30T09:19:00.435Z,97.58
2019-01-30T09:20:00.272Z,97.58
2019-01-30T09:21:00.173Z,97.58
2019-01-30T09:22:00.707Z,97.68
2019-01-30T09:23:00.170Z,97.85
2019-01-30T09:24:00.005Z,97.58
2019-01-30T09:25:00.028Z,97.68
2019-01-30T09:26:00.003Z,97.47
2019-01-30T09:27:00.020Z,97.47
2019-01-30T09:27:59.974Z,97.85
2019-01-30T09:29:00.000Z,98.31
2019-01-30T09:29:59.981Z,98.10
2019-01-30T09:30:59.962Z,97.68
2019-01-30T09:31:59.913Z,98.21
2019-01-30T09:32:59.864Z,97.99
2019-01-30T09:33:59.963Z,97.95
2019-01-30T09:35:00.136Z,98.05
2019-01-30T09:35:59.992Z,97.53
2019-01-30T09:36:59.826Z,97.78
2019-01-30T09:37:59.978Z,97.74
2019-01-30T09:38:59.892Z,97.74
2019-01-30T09:39:59.828Z,97.89
2019-01-30T09:40:59.813Z,97.74
2019-01-30T09:41:59.851Z,97.36
2019-01-30T09:42:59.812Z,97.32
2019-01-30T09:43:59.799Z,97.89
2019-01-30T09:44:59.733Z,97.74
2019-01-30T09:45:59.772Z,97.74
2019-01-30T09:46:59.754Z,97.42
2019-01-30T09:47:59.707Z,97.32
2019-01-30T09:48:59.720Z,97.42
2019-01-30T09:49:59.676Z,97.42
2019-01-30T09:50:59.760Z,97.42
2019-01-30T09:51:59.703Z,97.42
2019-01-30T09:52:59.699Z,97.53
2019-01-30T09:53:59.661Z,97.63
2019-01-30T09:54:59.653Z,97.63
2019-01-30T09:55:59.694Z,96.84
2019-01-30T09:56:59.641Z,96.90
2019-01-30T09:57:59.668Z,96.80
2019-01-30T09:58:59.646Z,97.11
2019-01-30T09:59:59.619Z,96.48
2019-01-30T10:00:59.727Z,96.37
2019-01-30T10:01:59.723Z,96.63
2019-01-30T10:02:59.612Z,96.53
2019-01-30T10:03:59.637Z,96.17
2019-01-30T10:04:59.589Z,96.80
2019-01-30T10:05:59.617Z,96.90
2019-01-30T10:06:59.560Z,96.48
2019-01-30T10:07:59.566Z,97.00
2019-01-30T10:08:59.549Z,96.96
2019-01-30T10:09:59.658Z,97.53
2019-01-30T10:10:59.586Z,97.53
2019-01-30T10:11:59.513Z,97.42
2019-01-30T10:12:59.734Z,97.42
2019-01-30T10:13:59.685Z,97.32
2019-01-30T10:14:59.597Z,97.32
2019-01-30T10:15:59.557Z,97.38
2019-01-30T10:16:59.691Z,97.74
2019-01-30T10:17:59.485Z,97.59
2019-01-30T10:18:59.436Z,97.85
2019-01-30T10:19:59.489Z,97.59
2019-01-30T10:20:59.620Z,97.69
2019-01-30T10:21:59.525Z,97.80
2019-01-30T10:22:59.399Z,97.91
2019-01-30T10:23:59.495Z,97.49
2019-01-30T10:24:59.408Z,97.28
2019-01-30T10:25:59.340Z,97.49
2019-01-30T10:26:59.547Z,97.49
2019-01-30T10:27:59.568Z,97.38
2019-01-30T10:28:59.378Z,97.17
2019-01-30T10:29:59.674Z,97.28
2019-01-30T10:30:59.447Z,96.65
2019-01-30T10:31:59.302Z,96.65
2019-01-30T10:32:59.297Z,96.44
2019-01-30T10:33:59.443Z,97.06
2019-01-30T10:34:59.371Z,96.23
2019-01-30T10:35:59.270Z,96.55
2019-01-30T10:36:59.295Z,96.86
2019-01-30T10:37:59.353Z,95.81
2019-01-30T10:38:59.363Z,96.44
2019-01-30T10:39:59.313Z,96.23
2019-01-30T10:40:59.198Z,96.33
2019-01-30T10:41:59.327Z,96.50
2019-01-30T10:42:59.255Z,96.23
2019-01-30T10:43:59.262Z,96.55
2019-01-30T10:44:59.297Z,95.56
2019-01-30T10:45:59.213Z,95.66
2019-01-30T10:46:59.183Z,95.60
2019-01-30T10:47:59.133Z,96.23
2019-01-30T10:48:59.243Z,96.23
2019-01-30T10:49:59.165Z,96.61
2019-01-30T10:50:59.167Z,96.33
2019-01-30T10:51:59.098Z,96.39
2019-01-30T10:52:59.292Z,96.44
2019-01-30T10:53:59.124Z,96.33
2019-01-30T10:54:59.050Z,96.65
2019-01-30T10:55:59.096Z,96.75
2019-01-30T10:56:59.114Z,96.86
2019-01-30T10:57:59.231Z,96.86
2019-01-30T10:58:59.062Z,97.38
2019-01-30T10:59:59.062Z,97.38
2019-01-30T11:00:59.138Z,97.28
2019-01-30T11:01:59.069Z,97.38
2019-01-30T11:02:59.275Z,97.59
2019-01-30T11:03:59.088Z,97.91
2019-01-30T11:04:59.064Z,97.59
2019-01-30T11:05:59.003Z,97.28
2019-01-30T11:06:58.970Z,97.91
2019-01-30T11:07:59.066Z,98.05
2019-01-30T11:08:58.942Z,97.74
2019-01-30T11:09:59.014Z,97.63
2019-01-30T11:11:07.598Z,97.85
2019-01-30T11:12:00.062Z,98.11
2019-01-30T11:12:58.954Z,97.74
2019-01-30T11:13:58.972Z,98.01
2019-01-30T11:14:59.683Z,98.11
2019-01-30T11:16:01.183Z,97.95
2019-01-30T11:16:58.885Z,97.85
2019-01-30T11:17:58.892Z,98.11
2019-01-30T11:18:58.949Z,97.91
2019-01-30T11:19:58.834Z,98.01
2019-01-30T11:20:58.823Z,97.91
2019-01-30T11:21:58.862Z,97.59
2019-01-30T11:22:58.963Z,98.01
2019-01-30T11:23:58.809Z,97.55
2019-01-30T11:24:58.748Z,97.28
2019-01-30T11:25:58.774Z,97.65
2019-01-30T11:26:58.690Z,97.96
2019-01-30T11:27:58.728Z,97.13
2019-01-30T11:28:58.708Z,97.23
2019-01-30T11:29:58.700Z,97.29
2019-01-30T11:30:58.815Z,97.19
2019-01-30T11:31:58.697Z,97.61
2019-01-30T11:32:58.691Z,96.88
2019-01-30T11:34:07.358Z,96.25
2019-01-30T11:34:59.802Z,96.98
2019-01-30T11:35:58.712Z,96.14
2019-01-30T11:37:00.190Z,96.66
2019-01-30T11:37:58.594Z,96.66
2019-01-30T11:38:58.654Z,96.98
2019-01-30T11:39:58.542Z,96.25
2019-01-30T11:40:58.522Z,96.88
2019-01-30T11:41:58.746Z,96.35
2019-01-30T11:42:58.541Z,96.20
2019-01-30T11:43:58.489Z,96.62
2019-01-30T11:44:58.592Z,96.31
2019-01-30T11:45:58.498Z,96.20
2019-01-30T11:46:58.455Z,96.25
2019-01-30T11:47:58.446Z,95.62
2019-01-30T11:48:58.430Z,96.04
2019-01-30T11:49:58.472Z,96.25
2019-01-30T11:50:58.459Z,96.25
2019-01-30T11:51:58.464Z,96.35
2019-01-30T11:52:58.465Z,96.45
2019-01-30T11:53:58.473Z,96.88
2019-01-30T11:54:58.372Z,97.29
2019-01-30T11:55:58.398Z,97.50
2019-01-30T11:56:58.467Z,96.94
2019-01-30T11:57:58.340Z,97.14
2019-01-30T11:58:58.354Z,97.67
2019-01-30T11:59:58.406Z,97.45
2019-01-30T12:00:58.346Z,97.35
2019-01-30T12:01:58.294Z,97.35
2019-01-30T12:02:58.383Z,97.45
2019-01-30T12:03:58.308Z,97.45
2019-01-30T12:04:58.296Z,96.72
2019-01-30T12:05:58.340Z,96.41
2019-01-30T12:06:58.255Z,96.62
2019-01-30T12:07:58.272Z,97.35
2019-01-30T12:08:58.307Z,97.25
2019-01-30T12:09:58.206Z,97.35
2019-01-30T12:10:58.224Z,97.56
2019-01-30T12:11:58.276Z,97.25
2019-01-30T12:12:58.215Z,97.35
2019-01-30T12:13:58.200Z,97.14
2019-01-30T12:14:58.219Z,96.94
2019-01-30T12:15:58.219Z,96.41
2019-01-30T12:16:58.155Z,96.72
2019-01-30T12:17:58.185Z,97.14
2019-01-30T12:18:58.146Z,97.04
2019-01-30T12:19:58.145Z,97.04
2019-01-30T12:20:58.140Z,97.25
2019-01-30T12:21:58.126Z,96.94
2019-01-30T12:22:58.105Z,97.45
2019-01-30T12:23:58.330Z,97.25
2019-01-30T12:24:58.119Z,96.89
2019-01-30T12:25:58.082Z,97.00
2019-01-30T12:26:58.062Z,97.35
2019-01-30T12:27:58.206Z,96.89
2019-01-30T12:28:58.065Z,97.72
2019-01-30T12:29:58.012Z,97.72
2019-01-30T12:30:58.042Z,97.83
2019-01-30T12:31:58.021Z,97.31
2019-01-30T12:32:58.096Z,96.89
2019-01-30T12:33:59.218Z,97.00
2019-01-30T12:34:58.059Z,96.89
2019-01-30T12:35:57.998Z,97.35
2019-01-30T12:36:57.977Z,96.94
2019-01-30T12:37:57.989Z,97.98
2019-01-30T12:38:57.986Z,97.56
2019-01-30T12:39:57.923Z,97.56
2019-01-30T12:40:57.889Z,97.50
2019-01-30T12:41:57.914Z,97.45
2019-01-30T12:42:57.952Z,97.71
2019-01-30T12:43:57.861Z,97.61
2019-01-30T12:44:58.033Z,97.45
2019-01-30T12:45:57.841Z,98.24
2019-01-30T12:46:57.911Z,98.55
2019-01-30T12:47:57.820Z,98.02
2019-01-30T12:48:57.802Z,98.02
2019-01-30T12:49:57.845Z,98.02
2019-01-30T12:50:57.812Z,98.55
2019-01-30T12:51:57.844Z,97.81